Paradis, Louisiana
Current Conditions -  °F | °C
As of 1:53 PM on Friday 31 Oct 2014 (Local Time) from KMSY Reporting Station
Few Clouds Few Clouds  
Wind Chill: 76°   Ceiling: Unl
Heat Index: 76°   Visibility: 10mi
Dew Point: 46°   Wind: 16mph
Humidity: 35%   Direction: 320°NW
Pressure: 30.01"   Gusts: 25mph
Location:  29.88°N, 90.43°W
Report Text: KMSY 311853Z 32014G22KT 10SM FEW040 FEW250 24/08 A3001 RMK AO2 SLP165 T02440078
Loading
Personal Weather Stations






























Interactive Weather Map
Tropical Storm Tracking
New forecast layout! Learn more

10-Day Weather Forecast

Advertisements
Track Severe Weather on mobile